createdAt,value
2022-12-31T00:00:29.238Z,99024.31
2022-12-31T00:03:01.087Z,99016.25
2022-12-31T00:05:34.148Z,99024.50
2022-12-31T00:08:05.953Z,99024.50
2022-12-31T00:10:41.529Z,99023.34
2022-12-31T00:13:13.647Z,99017.56
2022-12-31T00:15:45.437Z,99010.47
2022-12-31T00:18:19.909Z,99002.25
2022-12-31T00:20:53.677Z,99012.28
2022-12-31T00:23:25.394Z,99018.06
2022-12-31T00:25:57.067Z,99025.31
2022-12-31T00:28:29.158Z,99059.09
2022-12-31T00:31:09.433Z,99051.19
2022-12-31T00:33:41.968Z,99054.13
2022-12-31T00:36:22.429Z,99043.44
2022-12-31T00:38:57.696Z,99054.63
2022-12-31T00:41:29.647Z,99051.34
2022-12-31T00:44:01.669Z,99064.34
2022-12-31T00:46:33.577Z,99056.63
2022-12-31T00:49:06.007Z,99060.25
2022-12-31T00:51:37.803Z,99064.16
2022-12-31T00:54:10.240Z,99062.03
2022-12-31T00:56:41.946Z,99073.56
2022-12-31T00:59:13.724Z,99062.84
2022-12-31T01:01:45.763Z,99065.66
2022-12-31T01:04:20.979Z,99070.09
2022-12-31T01:06:52.683Z,99073.38
2022-12-31T01:09:24.411Z,99068.63
2022-12-31T01:11:56.106Z,99075.03
2022-12-31T01:14:27.918Z,99081.94
2022-12-31T01:16:59.626Z,99087.03
2022-12-31T01:19:31.412Z,99100.56
2022-12-31T01:22:03.092Z,99089.50
2022-12-31T01:24:34.857Z,99097.56
2022-12-31T01:27:09.340Z,99102.16
2022-12-31T01:29:41.198Z,99102.63
2022-12-31T01:32:12.912Z,99105.94
2022-12-31T01:34:44.681Z,99100.50
2022-12-31T01:37:16.471Z,99103.47
2022-12-31T01:39:48.490Z,99106.09
2022-12-31T01:42:20.214Z,99110.03
2022-12-31T01:44:54.895Z,99109.22
2022-12-31T01:47:37.995Z,99124.41
2022-12-31T01:50:16.830Z,99119.13
2022-12-31T01:52:52.411Z,99115.66
2022-12-31T01:55:52.793Z,99109.22
2022-12-31T01:58:44.235Z,99113.50
2022-12-31T02:01:23.821Z,99117.63
2022-12-31T02:03:57.418Z,99127.19
2022-12-31T02:06:44.090Z,99131.66
2022-12-31T02:09:15.991Z,99136.91
2022-12-31T02:11:47.980Z,99133.94
2022-12-31T02:14:31.502Z,99130.97
2022-12-31T02:17:24.654Z,99129.97
2022-12-31T02:20:20.559Z,99127.81
2022-12-31T02:23:17.562Z,99131.28
2022-12-31T02:26:07.495Z,99141.31
2022-12-31T02:28:42.042Z,99157.00
2022-12-31T02:31:21.627Z,99150.56
2022-12-31T02:34:02.370Z,99146.75
2022-12-31T02:36:38.315Z,99159.47
2022-12-31T02:39:12.518Z,99158.28
2022-12-31T02:41:51.317Z,99152.50
2022-12-31T02:44:26.848Z,99144.88
2022-12-31T02:47:10.583Z,99149.84
2022-12-31T02:50:03.876Z,99142.75
2022-12-31T02:52:38.220Z,99145.38
2022-12-31T02:55:15.705Z,99136.63
2022-12-31T02:58:13.148Z,99141.56
2022-12-31T03:01:14.672Z,99141.41
2022-12-31T03:03:46.465Z,99138.75
2022-12-31T03:06:18.484Z,99138.75
2022-12-31T03:09:11.107Z,99135.28
2022-12-31T03:12:01.332Z,99134.47
2022-12-31T03:14:33.222Z,99123.09
2022-12-31T03:17:05.013Z,99131.00
2022-12-31T03:19:55.044Z,99134.47
2022-12-31T03:22:29.694Z,99138.13
2022-12-31T03:25:26.234Z,99138.47
2022-12-31T03:27:58.369Z,99139.75
2022-12-31T03:30:32.154Z,99136.75
2022-12-31T03:33:05.499Z,99145.34
2022-12-31T03:35:38.803Z,99151.13
2022-12-31T03:38:10.625Z,99151.59
2022-12-31T03:40:45.244Z,99147.44
2022-12-31T03:43:19.379Z,99152.19
2022-12-31T03:45:52.863Z,99149.69
2022-12-31T03:48:24.648Z,99149.00
2022-12-31T03:50:56.402Z,99148.47
2022-12-31T03:53:28.235Z,99148.75
2022-12-31T03:55:59.975Z,99148.44
2022-12-31T03:58:31.685Z,99152.72
2022-12-31T04:01:03.591Z,99160.28
2022-12-31T04:03:35.426Z,99154.47
2022-12-31T04:06:07.279Z,99154.97
2022-12-31T04:08:39.074Z,99144.84
2022-12-31T04:11:12.801Z,99153.44
2022-12-31T04:13:47.749Z,99141.66
2022-12-31T04:16:22.480Z,99131.75
2022-12-31T04:19:00.076Z,99128.78
2022-12-31T04:21:35.151Z,99132.25
2022-12-31T04:24:07.575Z,99134.69
2022-12-31T04:26:39.733Z,99140.81
2022-12-31T04:29:11.527Z,99137.16
2022-12-31T04:31:43.262Z,99131.88
2022-12-31T04:34:15.035Z,99134.97
2022-12-31T04:36:46.822Z,99144.56
2022-12-31T04:39:18.569Z,99138.28
2022-12-31T04:41:50.679Z,99136.47
2022-12-31T04:44:22.856Z,99139.94
2022-12-31T04:46:54.536Z,99143.56
2022-12-31T04:49:26.279Z,99131.81
2022-12-31T04:51:58.009Z,99136.47
2022-12-31T04:54:29.800Z,99136.28
2022-12-31T04:57:01.486Z,99143.03
2022-12-31T04:59:33.405Z,99141.38
2022-12-31T05:02:05.199Z,99133.28
2022-12-31T05:04:37.069Z,99131.13
2022-12-31T05:07:08.842Z,99138.84
2022-12-31T05:09:40.626Z,99144.13
2022-12-31T05:12:12.286Z,99149.09
2022-12-31T05:14:44.046Z,99156.84
2022-12-31T05:17:15.711Z,99163.59
2022-12-31T05:19:47.465Z,99156.94
2022-12-31T05:22:31.307Z,99155.13
2022-12-31T05:25:03.095Z,99144.53
2022-12-31T05:27:35.169Z,99146.19
2022-12-31T05:30:07.754Z,99145.66
2022-12-31T05:32:39.729Z,99152.88
2022-12-31T05:35:11.645Z,99158.00
2022-12-31T05:37:43.630Z,99142.28
2022-12-31T05:40:15.840Z,99146.41
2022-12-31T05:42:47.583Z,99148.69
2022-12-31T05:45:23.863Z,99149.34
2022-12-31T05:47:58.674Z,99163.22
2022-12-31T05:50:30.377Z,99159.38
2022-12-31T05:53:08.915Z,99157.38
2022-12-31T05:55:40.713Z,99167.41
2022-12-31T05:58:12.518Z,99171.72
2022-12-31T06:00:44.695Z,99160.78
2022-12-31T06:03:16.438Z,99163.72
2022-12-31T06:05:48.214Z,99171.28
2022-12-31T06:08:19.895Z,99164.47
2022-12-31T06:10:51.661Z,99173.34
2022-12-31T06:13:23.337Z,99177.53
2022-12-31T06:15:55.228Z,99177.09
2022-12-31T06:18:26.972Z,99180.66
2022-12-31T06:20:58.926Z,99187.50
2022-12-31T06:23:31.085Z,99184.75
2022-12-31T06:26:06.924Z,99182.41
2022-12-31T06:28:39.667Z,99194.53
2022-12-31T06:31:13.764Z,99192.13
2022-12-31T06:33:46.937Z,99196.88
2022-12-31T06:36:22.205Z,99190.22
2022-12-31T06:38:55.199Z,99187.38
2022-12-31T06:41:27.023Z,99191.66
2022-12-31T06:43:59.242Z,99193.97
2022-12-31T06:46:31.009Z,99194.41
2022-12-31T06:49:03.079Z,99196.88
2022-12-31T06:51:34.949Z,99192.91
2022-12-31T06:54:06.739Z,99186.34
2022-12-31T06:56:40.421Z,99189.44
2022-12-31T06:59:30.988Z,99197.84
2022-12-31T07:02:05.794Z,99215.84
2022-12-31T07:05:12.902Z,99208.16
2022-12-31T07:08:09.640Z,99218.56
2022-12-31T07:10:47.296Z,99221.03
2022-12-31T07:13:18.963Z,99222.31
2022-12-31T07:16:18.239Z,99221.09
2022-12-31T07:18:53.060Z,99211.13
2022-12-31T07:21:37.265Z,99231.97
2022-12-31T07:24:10.577Z,99224.47
2022-12-31T07:27:02.939Z,99235.25
2022-12-31T07:29:56.480Z,99237.19
2022-12-31T07:32:57.057Z,99240.19
2022-12-31T07:35:42.128Z,99230.97
2022-12-31T07:38:29.115Z,99233.94
2022-12-31T07:41:20.975Z,99229.97
2022-12-31T07:44:13.215Z,99236.41
2022-12-31T07:47:01.823Z,99227.84
2022-12-31T07:49:34.340Z,99230.31
2022-12-31T07:52:07.560Z,99238.59
2022-12-31T07:54:39.315Z,99244.72
2022-12-31T07:57:16.533Z,99247.13
2022-12-31T08:00:13.826Z,99244.63
2022-12-31T08:03:21.643Z,99249.56
2022-12-31T08:06:19.402Z,99251.69
2022-12-31T08:09:03.825Z,99257.78
2022-12-31T08:11:48.349Z,99271.03
2022-12-31T08:14:21.506Z,99290.09
2022-12-31T08:16:54.472Z,99287.81
2022-12-31T08:19:32.539Z,99293.63
2022-12-31T08:22:27.190Z,99283.41
2022-12-31T08:25:21.116Z,99279.31
2022-12-31T08:28:13.574Z,99267.84
2022-12-31T08:30:58.579Z,99264.34
2022-12-31T08:33:54.061Z,99268.44
2022-12-31T08:36:47.521Z,99265.59
2022-12-31T08:39:33.783Z,99280.09
2022-12-31T08:42:25.384Z,99277.03
2022-12-31T08:45:31.797Z,99279.72
2022-12-31T08:48:18.238Z,99259.84
2022-12-31T08:50:50.127Z,99279.53
2022-12-31T08:53:22.194Z,99287.66
2022-12-31T08:56:00.626Z,99283.25
2022-12-31T08:58:38.548Z,99306.81
2022-12-31T09:01:13.817Z,99300.38
2022-12-31T09:04:00.021Z,99303.09
2022-12-31T09:06:36.416Z,99292.13
2022-12-31T09:09:30.106Z,99288.25
2022-12-31T09:12:09.532Z,99295.19
2022-12-31T09:14:47.141Z,99292.53
2022-12-31T09:17:45.079Z,99293.03
2022-12-31T09:20:22.774Z,99282.84
2022-12-31T09:22:55.696Z,99294.78
2022-12-31T09:25:30.607Z,99290.31
2022-12-31T09:28:17.878Z,99284.22
2022-12-31T09:31:00.854Z,99304.50
2022-12-31T09:33:50.133Z,99293.41
2022-12-31T09:36:48.838Z,99293.19
2022-12-31T09:39:47.851Z,99294.13
2022-12-31T09:42:49.073Z,99303.47
2022-12-31T09:45:36.769Z,99295.88
2022-12-31T09:48:32.943Z,99307.44
2022-12-31T09:51:29.376Z,99293.72
2022-12-31T09:54:04.233Z,99307.44
2022-12-31T09:56:42.696Z,99301.44
2022-12-31T09:59:33.183Z,99301.03
2022-12-31T10:02:41.249Z,99268.34
2022-12-31T10:05:40.876Z,99291.06
2022-12-31T10:08:24.814Z,99278.16
2022-12-31T10:11:03.463Z,99276.69
2022-12-31T10:13:57.459Z,99267.75
2022-12-31T10:16:41.627Z,99281.25
2022-12-31T10:19:13.338Z,99270.56
2022-12-31T10:22:22.393Z,99254.59
2022-12-31T10:25:38.476Z,99260.19
2022-12-31T10:28:25.899Z,99251.84
2022-12-31T10:31:25.064Z,99261.94
2022-12-31T10:34:13.100Z,99246.56
2022-12-31T10:36:58.795Z,99249.34
2022-12-31T10:39:46.122Z,99240.00
2022-12-31T10:42:39.042Z,99237.94
2022-12-31T10:45:53.496Z,99241.56
2022-12-31T10:48:36.903Z,99230.22
2022-12-31T10:51:32.915Z,99221.75
2022-12-31T10:54:35.804Z,99235.16
2022-12-31T10:57:16.338Z,99254.06
2022-12-31T11:00:01.502Z,99236.09
2022-12-31T11:03:10.510Z,99232.16
2022-12-31T11:06:16.971Z,99237.38
2022-12-31T11:09:37.452Z,99237.38
2022-12-31T11:12:26.370Z,99229.41
2022-12-31T11:15:00.676Z,99219.63
2022-12-31T11:18:06.804Z,99227.53
2022-12-31T11:21:07.472Z,99226.25
2022-12-31T11:23:44.791Z,99218.13
2022-12-31T11:26:53.916Z,99204.38
2022-12-31T11:29:53.552Z,99201.13
2022-12-31T11:32:31.264Z,99215.41
2022-12-31T11:35:22.766Z,99212.72
2022-12-31T11:38:28.627Z,99230.66
2022-12-31T11:41:13.289Z,99226.38
2022-12-31T11:44:36.116Z,99222.16
2022-12-31T11:47:30.708Z,99228.88
2022-12-31T11:50:35.649Z,99219.44
2022-12-31T11:53:30.960Z,99221.34
2022-12-31T11:56:06.780Z,99227.53
2022-12-31T11:58:49.538Z,99216.47
2022-12-31T12:01:36.384Z,99231.78
2022-12-31T12:04:10.631Z,99241.66
2022-12-31T12:06:44.385Z,99226.28
2022-12-31T12:09:28.759Z,99232.53
2022-12-31T12:12:03.891Z,99226.97
2022-12-31T12:14:38.461Z,99225.69
2022-12-31T12:17:13.324Z,99229.03
2022-12-31T12:19:53.171Z,99223.25
2022-12-31T12:22:26.663Z,99234.63
2022-12-31T12:25:20.678Z,99231.56
2022-12-31T12:27:53.060Z,99237.31
2022-12-31T12:30:28.315Z,99234.84
2022-12-31T12:33:01.868Z,99233.13
2022-12-31T12:35:35.669Z,99235.69
2022-12-31T12:38:14.894Z,99232.06
2022-12-31T12:40:53.977Z,99235.97
2022-12-31T12:43:29.831Z,99258.88
2022-12-31T12:46:30.300Z,99251.50
2022-12-31T12:49:04.079Z,99252.63
2022-12-31T12:52:03.043Z,99243.31
2022-12-31T12:54:56.715Z,99252.34
2022-12-31T12:58:00.879Z,99260.03
2022-12-31T13:00:52.009Z,99259.34
2022-12-31T13:03:37.563Z,99261.16
2022-12-31T13:06:28.886Z,99250.09
2022-12-31T13:09:15.682Z,99269.91
2022-12-31T13:12:15.969Z,99258.47
2022-12-31T13:15:11.551Z,99255.25
2022-12-31T13:18:04.427Z,99259.44
2022-12-31T13:20:59.794Z,99265.47
2022-12-31T13:23:50.293Z,99271.91
2022-12-31T13:26:34.123Z,99260.25
2022-12-31T13:29:10.586Z,99265.69
2022-12-31T13:31:43.094Z,99261.56
2022-12-31T13:34:22.396Z,99249.91
2022-12-31T13:36:56.773Z,99256.28
2022-12-31T13:39:38.006Z,99260.69
2022-12-31T13:42:28.824Z,99276.94
2022-12-31T13:45:04.400Z,99280.91
2022-12-31T13:47:56.571Z,99268.19
2022-12-31T13:50:38.754Z,99281.97
2022-12-31T13:53:31.441Z,99270.09
2022-12-31T13:56:13.213Z,99273.00
2022-12-31T13:59:09.998Z,99271.97
2022-12-31T14:02:26.772Z,99272.03
2022-12-31T14:05:14.022Z,99272.66
2022-12-31T14:07:54.980Z,99276.78
2022-12-31T14:10:53.051Z,99283.38
2022-12-31T14:13:34.597Z,99292.22
2022-12-31T14:16:19.780Z,99284.03
2022-12-31T14:19:04.925Z,99295.34
2022-12-31T14:21:47.193Z,99295.97
2022-12-31T14:24:45.324Z,99283.88
2022-12-31T14:27:22.852Z,99292.09
2022-12-31T14:30:16.787Z,99299.13
2022-12-31T14:33:10.861Z,99301.41
2022-12-31T14:35:51.751Z,99316.41
2022-12-31T14:38:45.302Z,99312.72
2022-12-31T14:41:34.013Z,99325.47
2022-12-31T14:44:27.111Z,99325.88
2022-12-31T14:47:35.362Z,99326.53
2022-12-31T14:50:17.355Z,99336.00
2022-12-31T14:53:04.059Z,99335.19
2022-12-31T14:55:37.248Z,99335.59
2022-12-31T14:58:41.374Z,99340.53
2022-12-31T15:01:16.486Z,99339.50
2022-12-31T15:03:50.550Z,99348.94
2022-12-31T15:06:41.951Z,99355.53
2022-12-31T15:09:46.368Z,99360.25
2022-12-31T15:12:20.715Z,99351.66
2022-12-31T15:15:16.615Z,99351.25
2022-12-31T15:18:17.429Z,99353.31
2022-12-31T15:21:10.892Z,99350.47
2022-12-31T15:23:44.047Z,99354.75
2022-12-31T15:26:28.448Z,99349.63
2022-12-31T15:29:23.091Z,99346.97
2022-12-31T15:31:57.347Z,99333.63
2022-12-31T15:34:31.035Z,99342.66
2022-12-31T15:37:05.766Z,99334.66
2022-12-31T15:39:40.893Z,99330.13
2022-12-31T15:42:49.229Z,99340.81
2022-12-31T15:45:33.204Z,99339.56
2022-12-31T15:48:15.624Z,99337.28
2022-12-31T15:50:51.646Z,99347.13
2022-12-31T15:53:43.541Z,99339.13
2022-12-31T15:56:23.664Z,99341.00
2022-12-31T15:58:58.887Z,99350.00
2022-12-31T16:01:37.102Z,99336.47
2022-12-31T16:04:19.961Z,99335.47
2022-12-31T16:06:52.614Z,99337.31
2022-12-31T16:09:29.766Z,99346.13
2022-12-31T16:12:03.977Z,99342.44
2022-12-31T16:14:39.480Z,99350.00
2022-12-31T16:17:29.878Z,99346.31
2022-12-31T16:20:21.116Z,99347.97
2022-12-31T16:22:57.544Z,99357.63
2022-12-31T16:25:32.705Z,99356.16
2022-12-31T16:28:05.159Z,99372.59
2022-12-31T16:30:37.121Z,99371.16
2022-12-31T16:33:15.009Z,99371.97
2022-12-31T16:35:55.590Z,99372.59
2022-12-31T16:38:35.702Z,99381.63
2022-12-31T16:41:17.568Z,99373.81
2022-12-31T16:43:50.242Z,99369.72
2022-12-31T16:46:27.123Z,99365.81
2022-12-31T16:49:04.367Z,99360.09
2022-12-31T16:51:37.925Z,99359.06
2022-12-31T16:54:30.639Z,99367.66
2022-12-31T16:57:04.665Z,99363.75
2022-12-31T16:59:44.158Z,99374.44
2022-12-31T17:02:21.936Z,99368.66
2022-12-31T17:04:56.273Z,99378.09
2022-12-31T17:07:28.117Z,99377.28
2022-12-31T17:10:18.335Z,99373.16
2022-12-31T17:15:50.869Z,99384.63
2022-12-31T17:18:25.765Z,99377.06
2022-12-31T17:21:06.938Z,99375.00
2022-12-31T17:23:42.641Z,99376.63
2022-12-31T17:26:28.177Z,99377.22
2022-12-31T17:29:02.076Z,99382.75
2022-12-31T17:31:39.852Z,99389.72
2022-12-31T17:34:17.014Z,99388.69
2022-12-31T17:36:58.884Z,99390.31
2022-12-31T17:39:51.775Z,99395.03
2022-12-31T17:42:33.027Z,99402.81
2022-12-31T17:45:20.452Z,99404.06
2022-12-31T17:47:53.785Z,99415.31
2022-12-31T17:50:38.803Z,99402.81
2022-12-31T17:53:23.039Z,99410.78
2022-12-31T17:56:18.733Z,99398.28
2022-12-31T17:58:55.297Z,99397.06
2022-12-31T18:01:27.199Z,99394.81
2022-12-31T18:03:58.985Z,99398.81
2022-12-31T18:06:31.013Z,99396.00
2022-12-31T18:09:02.817Z,99396.84
2022-12-31T18:11:36.700Z,99399.50
2022-12-31T18:14:09.151Z,99404.84
2022-12-31T18:16:41.006Z,99406.91
2022-12-31T18:19:45.747Z,99402.44
2022-12-31T18:22:14.496Z,99414.72
2022-12-31T18:24:48.409Z,99414.28
2022-12-31T18:27:20.845Z,99407.06
2022-12-31T18:30:04.288Z,99416.28
2022-12-31T18:32:41.424Z,99413.25
2022-12-31T18:38:16.486Z,99401.84
2022-12-31T18:40:54.850Z,99390.75
2022-12-31T18:43:26.678Z,99380.53
2022-12-31T18:45:58.457Z,99394.28
2022-12-31T18:48:30.196Z,99386.91
2022-12-31T18:51:03.903Z,99382.78
2022-12-31T18:53:35.564Z,99393.06
2022-12-31T18:56:12.809Z,99388.34
2022-12-31T18:58:46.008Z,99389.56
2022-12-31T19:01:46.348Z,99384.84
2022-12-31T19:04:26.944Z,99381.59
2022-12-31T19:06:59.486Z,99368.88
2022-12-31T19:09:45.102Z,99366.03
2022-12-31T19:12:18.250Z,99369.50
2022-12-31T19:14:49.950Z,99378.94
2022-12-31T19:17:21.821Z,99378.50
2022-12-31T19:19:53.536Z,99372.78
2022-12-31T19:22:25.262Z,99369.69
2022-12-31T19:24:56.963Z,99360.66
2022-12-31T19:27:31.780Z,99366.00
2022-12-31T19:30:03.913Z,99376.66
2022-12-31T19:32:35.687Z,99369.25
2022-12-31T19:35:11.852Z,99376.44
2022-12-31T19:37:45.455Z,99365.38
2022-12-31T19:40:26.913Z,99370.91
2022-12-31T19:42:58.723Z,99370.91
2022-12-31T19:45:32.019Z,99370.09
2022-12-31T19:48:04.003Z,99376.66
2022-12-31T19:50:35.908Z,99375.00
2022-12-31T19:53:19.542Z,99371.31
2022-12-31T19:55:52.427Z,99374.78
2022-12-31T19:58:26.453Z,99373.16
2022-12-31T20:01:02.878Z,99370.06
2022-12-31T20:03:35.494Z,99376.41
2022-12-31T20:06:09.946Z,99377.63
2022-12-31T20:08:44.768Z,99378.84
2022-12-31T20:11:19.606Z,99382.56
2022-12-31T20:13:56.438Z,99375.34
2022-12-31T20:16:29.777Z,99380.69
2022-12-31T20:19:01.602Z,99385.63
2022-12-31T20:21:33.453Z,99381.50
2022-12-31T20:24:05.420Z,99389.31
2022-12-31T20:26:37.170Z,99387.66
2022-12-31T20:29:11.698Z,99395.66
2022-12-31T20:31:43.448Z,99403.84
2022-12-31T20:34:15.135Z,99405.88
2022-12-31T20:36:46.922Z,99401.56
2022-12-31T20:39:18.757Z,99397.47
2022-12-31T20:41:50.757Z,99400.38
2022-12-31T20:44:22.480Z,99404.06
2022-12-31T20:46:54.219Z,99399.94
2022-12-31T20:49:52.145Z,99400.34
2022-12-31T20:52:20.895Z,99402.38
2022-12-31T20:54:58.568Z,99400.31
2022-12-31T20:57:33.808Z,99405.16
2022-12-31T21:00:07.134Z,99399.50
2022-12-31T21:02:42.415Z,99411.31
2022-12-31T21:05:15.022Z,99404.38
2022-12-31T21:07:46.811Z,99399.66
2022-12-31T21:10:18.672Z,99409.69
2022-12-31T21:12:53.409Z,99417.06
2022-12-31T21:15:25.527Z,99410.28
2022-12-31T21:17:59.183Z,99411.91
2022-12-31T21:20:31.139Z,99425.66
2022-12-31T21:23:03.127Z,99428.09
2022-12-31T21:25:34.932Z,99434.44
2022-12-31T21:28:06.725Z,99438.94
2022-12-31T21:30:42.122Z,99447.75
2022-12-31T21:33:13.977Z,99439.97
2022-12-31T21:35:53.780Z,99442.81
2022-12-31T21:38:27.436Z,99440.56
2022-12-31T21:41:03.440Z,99438.91
2022-12-31T21:43:35.304Z,99449.75
2022-12-31T21:46:07.696Z,99442.78
2022-12-31T21:48:39.560Z,99444.84
2022-12-31T21:51:14.201Z,99443.38
2022-12-31T21:53:46.044Z,99436.38
2022-12-31T21:56:21.106Z,99438.41
2022-12-31T21:59:17.471Z,99439.44
2022-12-31T22:02:08.173Z,99440.81
2022-12-31T22:07:31.901Z,99449.59
2022-12-31T22:10:03.842Z,99443.66
2022-12-31T22:12:35.637Z,99445.06
2022-12-31T22:15:15.175Z,99453.06
2022-12-31T22:17:47.844Z,99464.06
2022-12-31T22:20:29.348Z,99457.50
2022-12-31T22:23:01.157Z,99455.03
2022-12-31T22:25:37.826Z,99461.34
2022-12-31T22:28:37.449Z,99463.41
2022-12-31T22:31:01.440Z,99468.09
2022-12-31T22:33:33.299Z,99466.44
2022-12-31T22:36:08.511Z,99458.88
2022-12-31T22:38:40.618Z,99468.88
2022-12-31T22:41:18.251Z,99464.94
2022-12-31T22:44:00.233Z,99463.66
2022-12-31T22:46:35.497Z,99463.25
2022-12-31T22:49:07.284Z,99468.94
2022-12-31T22:51:57.360Z,99468.94
2022-12-31T22:54:30.641Z,99469.75
2022-12-31T22:57:02.415Z,99466.22
2022-12-31T22:59:34.112Z,99458.00
2022-12-31T23:02:05.814Z,99454.91
2022-12-31T23:04:37.880Z,99449.78
2022-12-31T23:07:09.692Z,99451.81
2022-12-31T23:10:00.327Z,99449.16
2022-12-31T23:12:33.330Z,99454.03
2022-12-31T23:15:24.026Z,99446.81
2022-12-31T23:18:14.192Z,99439.56
2022-12-31T23:21:04.551Z,99449.31
2022-12-31T23:23:36.265Z,99454.59
2022-12-31T23:26:07.998Z,99455.34
2022-12-31T23:28:41.901Z,99455.69
2022-12-31T23:31:13.677Z,99443.81
2022-12-31T23:33:45.429Z,99450.97
2022-12-31T23:36:17.143Z,99450.97
2022-12-31T23:38:49.023Z,99447.47
2022-12-31T23:41:21.424Z,99462.59
2022-12-31T23:43:53.138Z,99458.53
2022-12-31T23:46:25.066Z,99465.75
2022-12-31T23:48:56.829Z,99464.56
2022-12-31T23:51:28.714Z,99468.22
2022-12-31T23:54:00.969Z,99475.03
2022-12-31T23:56:32.845Z,99471.97
2022-12-31T23:59:04.909Z,99479.75
